createdAt,value
2022-12-24T00:02:12.315Z,70
2022-12-24T00:04:42.569Z,78
2022-12-24T00:07:12.948Z,82
2022-12-24T00:09:43.140Z,79
2022-12-24T00:12:13.555Z,72
2022-12-24T00:14:43.698Z,65
2022-12-24T00:17:14.277Z,72
2022-12-24T00:19:44.462Z,68
2022-12-24T00:22:14.932Z,64
2022-12-24T00:24:45.336Z,64
2022-12-24T00:27:15.743Z,64
2022-12-24T00:29:46.073Z,64
2022-12-24T00:32:16.386Z,64
2022-12-24T00:34:46.690Z,68
2022-12-24T00:37:17.085Z,65
2022-12-24T00:39:47.384Z,56
2022-12-24T00:42:17.698Z,60
2022-12-24T00:44:48.036Z,52
2022-12-24T00:47:18.300Z,54
2022-12-24T00:49:48.654Z,44
2022-12-24T00:52:19.020Z,44
2022-12-24T00:54:49.332Z,42
2022-12-24T00:57:19.341Z,44
2022-12-24T00:59:49.612Z,40
2022-12-24T01:02:20.137Z,40
2022-12-24T01:04:50.377Z,37
2022-12-24T01:07:20.775Z,40
2022-12-24T01:09:51.202Z,40
2022-12-24T01:12:21.574Z,40
2022-12-24T01:14:51.995Z,40
2022-12-24T01:17:22.418Z,40
2022-12-24T01:19:52.790Z,40
2022-12-24T01:22:23.225Z,40
2022-12-24T01:24:53.599Z,40
2022-12-24T01:27:23.845Z,42
2022-12-24T01:29:54.154Z,38
2022-12-24T01:32:24.300Z,38
2022-12-24T01:34:54.606Z,43
2022-12-24T01:37:24.966Z,41
2022-12-24T01:39:55.306Z,41
2022-12-24T01:42:25.765Z,44
2022-12-24T01:44:56.135Z,48
2022-12-24T01:47:26.537Z,46
2022-12-24T01:49:56.909Z,48
2022-12-24T01:52:27.357Z,44
2022-12-24T01:54:57.674Z,43
2022-12-24T01:57:27.915Z,44
2022-12-24T01:59:58.649Z,48
2022-12-24T02:02:29.123Z,46
2022-12-24T02:04:59.354Z,44
2022-12-24T02:07:29.751Z,42
2022-12-24T02:10:00.203Z,44
2022-12-24T02:12:30.502Z,42
2022-12-24T02:15:00.952Z,40
2022-12-24T02:17:31.315Z,44
2022-12-24T02:20:01.704Z,44
2022-12-24T02:22:31.916Z,42
2022-12-24T02:25:02.108Z,48
2022-12-24T02:27:32.204Z,45
2022-12-24T02:30:02.409Z,44
2022-12-24T02:32:32.583Z,40
2022-12-24T02:35:02.722Z,45
2022-12-24T02:37:32.932Z,44
2022-12-24T02:40:03.268Z,44
2022-12-24T02:42:33.315Z,44
2022-12-24T02:45:03.639Z,44
2022-12-24T02:47:34.405Z,44
2022-12-24T02:50:04.095Z,44
2022-12-24T02:52:34.355Z,45
2022-12-24T02:55:04.434Z,48
2022-12-24T02:57:34.721Z,52
2022-12-24T03:00:05.018Z,49
2022-12-24T03:02:35.583Z,52
2022-12-24T03:05:05.676Z,47
2022-12-24T03:07:36.051Z,46
2022-12-24T03:10:06.464Z,48
2022-12-24T03:12:36.773Z,40
2022-12-24T03:15:07.068Z,40
2022-12-24T03:17:37.527Z,40
2022-12-24T03:20:07.866Z,39
2022-12-24T03:22:38.153Z,40
2022-12-24T03:25:08.387Z,36
2022-12-24T03:27:38.808Z,40
2022-12-24T03:30:08.930Z,40
2022-12-24T03:32:39.248Z,36
2022-12-24T03:35:09.660Z,39
2022-12-24T03:37:39.832Z,36
2022-12-24T03:40:10.216Z,40
2022-12-24T03:42:40.434Z,37
2022-12-24T03:45:10.815Z,36
2022-12-24T03:47:41.207Z,32
2022-12-24T03:50:11.610Z,32
2022-12-24T03:52:41.964Z,32
2022-12-24T03:55:12.365Z,32
2022-12-24T03:57:42.748Z,28
2022-12-24T04:00:13.642Z,32
2022-12-24T04:02:44.188Z,32
2022-12-24T04:05:14.464Z,32
2022-12-24T04:07:44.790Z,36
2022-12-24T04:10:15.248Z,39
2022-12-24T04:12:45.628Z,36
2022-12-24T04:15:16.093Z,32
2022-12-24T04:17:46.258Z,36
2022-12-24T04:20:16.719Z,36
2022-12-24T04:22:47.195Z,35
2022-12-24T04:25:17.532Z,36
2022-12-24T04:27:47.797Z,36
2022-12-24T04:30:18.174Z,36
2022-12-24T04:32:48.454Z,36
2022-12-24T04:35:18.773Z,40
2022-12-24T04:37:49.201Z,37
2022-12-24T04:40:19.575Z,40
2022-12-24T04:42:49.973Z,43
2022-12-24T04:45:20.369Z,39
2022-12-24T04:47:50.725Z,40
2022-12-24T04:50:21.088Z,40
2022-12-24T04:52:51.470Z,40
2022-12-24T04:55:21.905Z,36
2022-12-24T04:57:53.170Z,32
2022-12-24T05:00:22.415Z,35
2022-12-24T05:02:52.940Z,32
2022-12-24T05:05:23.270Z,33
2022-12-24T05:07:53.716Z,32
2022-12-24T05:10:24.115Z,36
2022-12-24T05:12:54.474Z,34
2022-12-24T05:15:24.814Z,36
2022-12-24T05:17:55.243Z,32
2022-12-24T05:20:25.647Z,32
2022-12-24T05:22:56.084Z,32
2022-12-24T05:25:26.537Z,32
2022-12-24T05:27:56.842Z,32
2022-12-24T05:30:27.310Z,32
2022-12-24T05:32:57.624Z,32
2022-12-24T05:35:28.465Z,32
2022-12-24T05:37:58.851Z,32
2022-12-24T05:40:29.221Z,28
2022-12-24T05:42:59.293Z,30
2022-12-24T05:45:29.606Z,25
2022-12-24T05:48:00.061Z,28
2022-12-24T05:50:30.525Z,28
2022-12-24T05:53:00.852Z,28
2022-12-24T05:55:31.266Z,32
2022-12-24T05:58:01.621Z,32
2022-12-24T06:00:31.982Z,32
2022-12-24T06:03:02.432Z,28
2022-12-24T06:05:32.556Z,32
2022-12-24T06:08:02.843Z,32
2022-12-24T06:10:33.049Z,32
2022-12-24T06:13:03.080Z,28
2022-12-24T06:18:09.048Z,24
2022-12-24T06:20:39.093Z,24
2022-12-24T06:23:09.364Z,24
2022-12-24T06:28:10.139Z,24
2022-12-24T06:30:40.765Z,28
2022-12-24T06:33:11.145Z,24
2022-12-24T06:35:41.228Z,27
2022-12-24T06:38:11.582Z,24
2022-12-24T06:40:45.477Z,20
2022-12-24T06:43:15.945Z,24
2022-12-24T06:45:46.130Z,23
2022-12-24T06:48:16.563Z,24
2022-12-24T06:50:46.951Z,28
2022-12-24T06:53:17.217Z,32
2022-12-24T06:58:31.901Z,36
2022-12-24T07:03:56.339Z,39
2022-12-24T07:06:30.111Z,32
2022-12-24T07:09:00.157Z,28
2022-12-24T07:11:30.583Z,32
2022-12-24T07:14:00.990Z,28
2022-12-24T07:16:31.409Z,32
2022-12-24T07:19:01.556Z,36
2022-12-24T07:21:32.055Z,28
2022-12-24T07:24:02.473Z,28
2022-12-24T07:26:32.383Z,24
2022-12-24T07:29:02.592Z,28
2022-12-24T07:31:32.870Z,27
2022-12-24T07:34:02.991Z,40
2022-12-24T07:36:33.057Z,52
2022-12-24T07:39:03.308Z,48
2022-12-24T07:41:36.327Z,48
2022-12-24T07:44:03.990Z,58
2022-12-24T07:46:34.370Z,52
2022-12-24T07:49:04.592Z,52
2022-12-24T07:51:36.879Z,47
2022-12-24T07:54:06.789Z,43
2022-12-24T07:56:37.046Z,43
2022-12-24T07:59:07.296Z,39
2022-12-24T08:01:37.768Z,36
2022-12-24T08:04:07.769Z,33
2022-12-24T08:06:38.155Z,35
2022-12-24T08:09:08.537Z,36
2022-12-24T08:11:38.917Z,32
2022-12-24T08:14:09.348Z,32
2022-12-24T08:16:39.625Z,32
2022-12-24T08:19:09.988Z,32
2022-12-24T08:21:44.406Z,32
2022-12-24T08:24:14.795Z,32
2022-12-24T08:26:45.888Z,36
2022-12-24T08:29:15.860Z,37
2022-12-24T08:31:46.696Z,36
2022-12-24T08:34:17.031Z,40
2022-12-24T08:36:47.450Z,39
2022-12-24T08:39:21.464Z,40
2022-12-24T08:41:51.795Z,38
2022-12-24T08:44:22.709Z,39
2022-12-24T08:46:53.417Z,39
2022-12-24T08:49:27.156Z,36
2022-12-24T08:52:00.605Z,39
2022-12-24T08:54:30.831Z,36
2022-12-24T08:57:16.872Z,37
2022-12-24T08:59:47.613Z,35
2022-12-24T09:02:24.031Z,36
2022-12-24T09:05:01.881Z,37
2022-12-24T09:07:32.732Z,36
2022-12-24T09:10:02.947Z,36
2022-12-24T09:12:33.860Z,36
2022-12-24T09:15:04.503Z,36
2022-12-24T09:17:34.880Z,35
2022-12-24T09:20:05.328Z,36
2022-12-24T09:22:36.437Z,32
2022-12-24T09:25:06.682Z,32
2022-12-24T09:27:36.960Z,34
2022-12-24T09:30:07.375Z,31
2022-12-24T09:32:37.590Z,32
2022-12-24T09:35:08.683Z,36
2022-12-24T09:37:38.959Z,32
2022-12-24T09:40:09.364Z,32
2022-12-24T09:42:39.774Z,32
2022-12-24T09:45:10.037Z,32
2022-12-24T09:47:41.028Z,32
2022-12-24T09:50:11.371Z,32
2022-12-24T09:52:41.727Z,32
2022-12-24T09:55:12.186Z,32
2022-12-24T09:57:42.658Z,32
2022-12-24T10:00:13.073Z,32
2022-12-24T10:02:43.597Z,32
2022-12-24T10:05:13.830Z,32
2022-12-24T10:07:44.146Z,33
2022-12-24T10:10:26.195Z,32
2022-12-24T10:12:54.267Z,32
2022-12-24T10:15:24.427Z,28
2022-12-24T10:17:55.486Z,32
2022-12-24T10:20:29.855Z,32
2022-12-24T10:22:59.916Z,28
2022-12-24T10:25:30.430Z,28
2022-12-24T10:28:01.348Z,32
2022-12-24T10:30:31.357Z,28
2022-12-24T10:33:02.188Z,28
2022-12-24T10:35:32.282Z,28
2022-12-24T10:38:02.605Z,24
2022-12-24T10:40:32.708Z,27
2022-12-24T10:43:02.987Z,28
2022-12-24T10:45:33.289Z,26
2022-12-24T10:48:03.624Z,26
2022-12-24T10:50:34.140Z,32
2022-12-24T10:53:04.556Z,29
2022-12-24T10:55:34.791Z,28
2022-12-24T10:58:07.902Z,28
2022-12-24T11:00:38.305Z,32
2022-12-24T11:03:13.350Z,28
2022-12-24T11:05:43.533Z,28
2022-12-24T11:08:14.219Z,28
2022-12-24T11:10:44.550Z,32
2022-12-24T11:13:36.680Z,32
2022-12-24T11:15:45.299Z,24
2022-12-24T11:18:15.706Z,28
2022-12-24T11:20:46.094Z,24
2022-12-24T11:23:17.098Z,28
2022-12-24T11:25:47.171Z,24
2022-12-24T11:28:17.605Z,27
2022-12-24T11:30:47.947Z,67
2022-12-24T11:33:18.191Z,103
2022-12-24T11:35:48.568Z,75
2022-12-24T11:38:18.895Z,32
2022-12-24T11:40:49.852Z,32
2022-12-24T11:43:20.201Z,29
2022-12-24T11:45:51.283Z,28
2022-12-24T11:48:21.702Z,32
2022-12-24T11:50:52.069Z,28
2022-12-24T11:53:22.232Z,28
2022-12-24T11:55:52.514Z,28
2022-12-24T11:58:22.867Z,27
2022-12-24T12:00:53.067Z,28
2022-12-24T12:03:23.554Z,28
2022-12-24T12:05:53.967Z,24
2022-12-24T12:08:24.355Z,24
2022-12-24T12:10:54.463Z,24
2022-12-24T12:13:25.464Z,24
2022-12-24T12:18:28.983Z,24
2022-12-24T12:20:59.346Z,28
2022-12-24T12:23:29.652Z,32
2022-12-24T12:25:59.958Z,32
2022-12-24T12:28:31.060Z,32
2022-12-24T12:31:01.384Z,28
2022-12-24T12:33:32.479Z,27
2022-12-24T12:36:02.562Z,28
2022-12-24T12:38:33.570Z,28
2022-12-24T12:41:03.823Z,24
2022-12-24T12:43:34.236Z,26
2022-12-24T12:46:04.584Z,24
2022-12-24T12:48:34.782Z,24
2022-12-24T12:51:05.067Z,24
2022-12-24T12:53:35.946Z,24
2022-12-24T12:56:05.992Z,32
2022-12-24T12:58:36.870Z,29
2022-12-24T13:01:06.981Z,30
2022-12-24T13:03:37.228Z,32
2022-12-24T13:06:07.632Z,28
2022-12-24T13:08:38.310Z,27
2022-12-24T13:11:08.574Z,28
2022-12-24T13:13:39.296Z,28
2022-12-24T13:16:12.071Z,28
2022-12-24T13:18:42.846Z,28
2022-12-24T13:21:13.202Z,29
2022-12-24T13:23:44.241Z,28
2022-12-24T13:26:17.422Z,32
2022-12-24T13:28:47.697Z,30
2022-12-24T13:31:17.842Z,29
2022-12-24T13:33:48.504Z,31
2022-12-24T13:36:18.847Z,32
2022-12-24T13:38:49.284Z,28
2022-12-24T13:41:20.327Z,30
2022-12-24T13:43:50.644Z,32
2022-12-24T13:46:21.530Z,32
2022-12-24T13:48:57.408Z,28
2022-12-24T13:51:27.737Z,32
2022-12-24T13:53:58.333Z,32
2022-12-24T13:56:28.762Z,32
2022-12-24T13:59:00.138Z,30
2022-12-24T14:01:42.313Z,32
2022-12-24T14:04:18.120Z,36
2022-12-24T14:06:50.872Z,32
2022-12-24T14:09:21.233Z,34
2022-12-24T14:11:51.824Z,32
2022-12-24T14:14:22.147Z,32
2022-12-24T14:16:52.577Z,32
2022-12-24T14:19:23.592Z,32
2022-12-24T14:21:54.017Z,33
2022-12-24T14:24:25.336Z,35
2022-12-24T14:27:00.106Z,36
2022-12-24T14:29:30.694Z,36
2022-12-24T14:32:01.136Z,36
2022-12-24T14:34:32.027Z,36
2022-12-24T14:37:02.504Z,36
2022-12-24T14:39:36.884Z,36
2022-12-24T14:42:07.675Z,40
2022-12-24T14:44:38.062Z,48
2022-12-24T14:47:09.152Z,40
2022-12-24T14:49:40.009Z,44
2022-12-24T14:52:24.467Z,48
2022-12-24T14:54:41.378Z,44
2022-12-24T14:57:12.486Z,43
2022-12-24T14:59:42.752Z,44
2022-12-24T15:02:13.776Z,44
2022-12-24T15:04:43.974Z,46
2022-12-24T15:07:14.415Z,44
2022-12-24T15:09:44.790Z,44
2022-12-24T15:12:15.248Z,46
2022-12-24T15:14:45.536Z,44
2022-12-24T15:17:16.092Z,44
2022-12-24T15:19:46.366Z,47
2022-12-24T15:22:16.786Z,43
2022-12-24T15:24:47.148Z,44
2022-12-24T15:27:18.010Z,45
2022-12-24T15:29:48.208Z,46
2022-12-24T15:32:19.263Z,44
2022-12-24T15:34:49.702Z,48
2022-12-24T15:37:20.142Z,44
2022-12-24T15:39:50.462Z,40
2022-12-24T15:42:20.903Z,44
2022-12-24T15:44:51.309Z,44
2022-12-24T15:47:21.813Z,44
2022-12-24T15:49:52.265Z,44
2022-12-24T15:52:23.407Z,40
2022-12-24T15:54:57.612Z,40
2022-12-24T15:57:24.187Z,44
2022-12-24T15:59:54.551Z,44
2022-12-24T16:02:25.328Z,44
2022-12-24T16:04:58.337Z,42
2022-12-24T16:07:28.432Z,47
2022-12-24T16:09:58.917Z,48
2022-12-24T16:12:29.829Z,48
2022-12-24T16:15:00.151Z,48
2022-12-24T16:17:30.748Z,49
2022-12-24T16:20:01.694Z,51
2022-12-24T16:22:32.014Z,55
2022-12-24T16:25:02.471Z,52
2022-12-24T16:27:32.881Z,49
2022-12-24T16:30:03.954Z,52
2022-12-24T16:32:34.373Z,54
2022-12-24T16:35:04.657Z,56
2022-12-24T16:37:34.932Z,56
2022-12-24T16:40:05.954Z,55
2022-12-24T16:42:37.619Z,52
2022-12-24T16:45:08.026Z,52
2022-12-24T16:47:42.989Z,55
2022-12-24T16:50:10.171Z,52
2022-12-24T16:52:40.306Z,53
2022-12-24T16:55:11.304Z,56
2022-12-24T16:57:41.762Z,56
2022-12-24T17:00:12.690Z,56
2022-12-24T17:02:43.141Z,56
2022-12-24T17:05:14.255Z,56
2022-12-24T17:07:48.355Z,56
2022-12-24T17:10:18.653Z,64
2022-12-24T17:12:49.027Z,56
2022-12-24T17:15:19.311Z,56
2022-12-24T17:17:49.765Z,56
2022-12-24T17:20:23.938Z,56
2022-12-24T17:22:51.276Z,50
2022-12-24T17:25:21.561Z,53
2022-12-24T17:27:51.909Z,56
2022-12-24T17:30:23.013Z,52
2022-12-24T17:32:53.355Z,56
2022-12-24T17:35:23.590Z,56
2022-12-24T17:37:54.647Z,56
2022-12-24T17:40:25.013Z,52
2022-12-24T17:42:55.453Z,56
2022-12-24T17:45:26.337Z,52
2022-12-24T17:47:56.797Z,48
2022-12-24T17:50:27.233Z,56
2022-12-24T17:52:58.289Z,51
2022-12-24T17:55:29.195Z,49
2022-12-24T17:57:59.480Z,50
2022-12-24T18:00:33.125Z,46
2022-12-24T18:03:00.250Z,48
2022-12-24T18:05:30.712Z,48
2022-12-24T18:08:01.036Z,48
2022-12-24T18:10:32.041Z,48
2022-12-24T18:13:02.673Z,48
2022-12-24T18:15:32.843Z,49
2022-12-24T18:18:03.058Z,48
2022-12-24T18:20:33.958Z,48
2022-12-24T18:23:04.101Z,48
2022-12-24T18:25:34.365Z,48
2022-12-24T18:28:05.293Z,48
2022-12-24T18:30:35.669Z,48
2022-12-24T18:33:06.115Z,50
2022-12-24T18:35:36.532Z,48
2022-12-24T18:38:06.956Z,48
2022-12-24T18:40:37.354Z,44
2022-12-24T18:45:54.009Z,48
2022-12-24T18:48:24.202Z,46
2022-12-24T18:50:55.015Z,46
2022-12-24T18:53:25.346Z,49
2022-12-24T18:55:56.333Z,52
2022-12-24T18:58:27.251Z,52
2022-12-24T19:00:57.538Z,51
2022-12-24T19:03:31.318Z,52
2022-12-24T19:06:01.607Z,49
2022-12-24T19:08:56.867Z,49
2022-12-24T19:11:02.385Z,60
2022-12-24T19:13:32.536Z,56
2022-12-24T19:16:03.041Z,52
2022-12-24T19:18:34.063Z,52
2022-12-24T19:21:04.703Z,52
2022-12-24T19:23:35.717Z,53
2022-12-24T19:26:06.042Z,44
2022-12-24T19:28:37.029Z,48
2022-12-24T19:31:07.452Z,45
2022-12-24T19:33:42.330Z,51
2022-12-24T19:36:08.225Z,47
2022-12-24T19:38:38.622Z,46
2022-12-24T19:41:09.086Z,47
2022-12-24T19:43:45.897Z,48
2022-12-24T19:46:16.130Z,48
2022-12-24T19:48:47.081Z,52
2022-12-24T19:51:17.534Z,54
2022-12-24T19:53:48.542Z,50
2022-12-24T19:56:18.631Z,49
2022-12-24T19:58:49.552Z,48
2022-12-24T20:01:20.035Z,54
2022-12-24T20:03:50.190Z,56
2022-12-24T20:06:20.456Z,59
2022-12-24T20:08:50.476Z,69
2022-12-24T20:11:20.653Z,65
2022-12-24T20:13:50.799Z,60
2022-12-24T20:16:21.301Z,60
2022-12-24T20:18:51.531Z,59
2022-12-24T20:21:22.562Z,57
2022-12-24T20:23:52.970Z,56
2022-12-24T20:26:23.746Z,66
2022-12-24T20:28:59.694Z,60
2022-12-24T20:31:30.106Z,52
2022-12-24T20:34:00.895Z,57
2022-12-24T20:36:31.519Z,56
2022-12-24T20:39:01.912Z,64
2022-12-24T20:41:32.293Z,70
2022-12-24T20:44:02.681Z,69
2022-12-24T20:46:33.152Z,68
2022-12-24T20:49:03.368Z,70
2022-12-24T20:51:34.375Z,64
2022-12-24T20:54:04.723Z,70
2022-12-24T20:56:35.767Z,78
2022-12-24T20:59:06.567Z,85
2022-12-24T21:01:38.087Z,88
2022-12-24T21:04:08.837Z,96
2022-12-24T21:06:39.076Z,95
2022-12-24T21:09:10.103Z,88
2022-12-24T21:11:43.190Z,90
2022-12-24T21:14:14.212Z,93
2022-12-24T21:16:44.627Z,96
2022-12-24T21:19:14.791Z,92
2022-12-24T21:21:44.977Z,92
2022-12-24T21:24:14.667Z,104
2022-12-24T21:26:45.009Z,100
2022-12-24T21:29:15.138Z,104
2022-12-24T21:31:45.632Z,100
2022-12-24T21:34:15.786Z,94
2022-12-24T21:36:45.828Z,92
2022-12-24T21:41:45.942Z,100
2022-12-24T21:44:16.268Z,107
2022-12-24T21:46:46.602Z,108
2022-12-24T21:49:16.839Z,111
2022-12-24T21:51:47.541Z,108
2022-12-24T21:54:17.613Z,105
2022-12-24T21:56:51.107Z,111
2022-12-24T21:59:26.506Z,112
2022-12-24T22:01:52.053Z,111
2022-12-24T22:04:21.900Z,108
2022-12-24T22:06:52.135Z,105
2022-12-24T22:09:22.489Z,112
2022-12-24T22:11:54.833Z,108
2022-12-24T22:14:23.630Z,108
2022-12-24T22:16:54.063Z,96
2022-12-24T22:19:24.636Z,104
2022-12-24T22:21:54.957Z,102
2022-12-24T22:24:25.356Z,100
2022-12-24T22:26:56.403Z,101
2022-12-24T22:29:26.718Z,89
2022-12-24T22:31:57.082Z,94
2022-12-24T22:34:27.420Z,96
2022-12-24T22:36:57.471Z,96
2022-12-24T22:39:27.827Z,95
2022-12-24T22:41:58.252Z,88
2022-12-24T22:44:29.179Z,99
2022-12-24T22:46:59.494Z,92
2022-12-24T22:52:17.527Z,96
2022-12-24T22:54:46.956Z,95
2022-12-24T22:57:17.323Z,95
2022-12-24T22:59:47.409Z,92
2022-12-24T23:02:20.762Z,88
2022-12-24T23:04:49.651Z,91
2022-12-24T23:09:54.906Z,90
2022-12-24T23:12:24.385Z,84
2022-12-24T23:14:55.898Z,87
2022-12-24T23:17:26.193Z,87
2022-12-24T23:19:56.051Z,88
2022-12-24T23:22:26.304Z,84
2022-12-24T23:24:56.718Z,76
2022-12-24T23:27:27.102Z,76
2022-12-24T23:29:57.382Z,80
2022-12-24T23:32:27.789Z,72
2022-12-24T23:34:58.845Z,70
2022-12-24T23:37:34.798Z,72
2022-12-24T23:39:59.704Z,70
2022-12-24T23:42:30.206Z,72
2022-12-24T23:45:00.500Z,68
2022-12-24T23:47:30.830Z,72
2022-12-24T23:50:00.883Z,66
2022-12-24T23:52:31.235Z,64
2022-12-24T23:55:01.642Z,70
2022-12-24T23:57:31.977Z,64
